Time;durP1;ratioP1;P1;durP2;ratioP2;P2;SDS_P1;SDS_P2;PMS_P1;PMS_P2;Temp;Humidity;BMP_temperature;BMP_pressure;BME280_temperature;BME280_humidity;BME280_pressure;Samples;Min_cycle;Max_cycle;Signal;HPM_P1;HPM_P2
2021/07/17 00:00:20;;;;;;;34.97;12.05;;;;;;;15.19;92.48;102849.34;5014002;28;20065;-72
2021/07/17 00:02:49;;;;;;;33.25;11.40;;;;;;;15.19;92.44;102845.75;5014910;28;20440;-73
2021/07/17 00:05:18;;;;;;;29.98;11.32;;;;;;;15.25;92.22;102851.03;5014445;28;20119;-72
2021/07/17 00:07:47;;;;;;;29.10;10.35;;;;;;;15.25;92.24;102851.03;5016079;28;20112;-73
2021/07/17 00:10:16;;;;;;;22.73;9.70;;;;;;;15.32;92.15;102856.25;5010934;28;20067;-74
2021/07/17 00:12:45;;;;;;;24.90;11.43;;;;;;;15.27;92.53;102844.72;5014652;28;20510;-72
2021/07/17 00:15:14;;;;;;;28.55;9.63;;;;;;;15.29;92.36;102844.69;5015392;28;20464;-72
2021/07/17 00:17:42;;;;;;;27.30;10.45;;;;;;;15.31;92.56;102845.53;5013009;28;20109;-73
2021/07/17 00:20:14;;;;;;;24.65;9.65;;;;;;;15.34;92.34;102845.47;5015459;28;20431;-72
2021/07/17 00:22:42;;;;;;;36.50;11.25;;;;;;;15.35;92.65;102846.34;5013263;28;20138;-72
2021/07/17 00:25:13;;;;;;;29.25;10.10;;;;;;;15.35;92.65;102843.66;5014805;28;20062;-72
2021/07/17 00:27:41;;;;;;;30.13;9.93;;;;;;;15.38;92.33;102844.47;5013756;28;20100;-72
2021/07/17 00:30:09;;;;;;;28.45;10.00;;;;;;;15.40;92.27;102842.63;5015467;28;20065;-72
2021/07/17 00:32:37;;;;;;;23.65;9.65;;;;;;;15.46;92.17;102844.31;5016395;28;20468;-73
2021/07/17 00:35:06;;;;;;;27.50;10.20;;;;;;;15.48;92.04;102845.19;5016056;28;20168;-72
2021/07/17 00:37:36;;;;;;;28.48;10.10;;;;;;;15.49;92.13;102841.56;5013214;28;20073;-72
2021/07/17 00:40:06;;;;;;;28.10;11.02;;;;;;;15.56;91.68;102840.53;5013987;28;20065;-72
2021/07/17 00:42:34;;;;;;;23.38;9.63;;;;;;;15.59;91.60;102837.75;5011688;28;20094;-72
2021/07/17 00:45:02;;;;;;;33.83;10.38;;;;;;;15.64;91.03;102843.03;5015641;28;20079;-73
2021/07/17 00:47:31;;;;;;;27.73;10.15;;;;;;;15.68;91.16;102840.25;5015675;28;20144;-72
2021/07/17 00:49:59;;;;;;;23.42;9.32;;;;;;;15.71;90.69;102839.28;5014644;28;20160;-72
2021/07/17 00:52:27;;;;;;;20.63;8.90;;;;;;;15.73;90.55;102839.25;5012187;28;20096;-72
2021/07/17 00:54:58;;;;;;;23.25;9.23;;;;;;;15.80;90.45;102841.84;5013008;28;20069;-72
2021/07/17 00:57:27;;;;;;;27.52;9.85;;;;;;;15.85;90.20;102837.22;5012768;28;20066;-72
2021/07/17 01:00:00;;;;;;;20.60;9.63;;;;;;;15.92;89.64;102845.16;5014713;28;20200;-72
2021/07/17 01:02:31;;;;;;;28.25;9.77;;;;;;;15.93;89.07;102838.84;5011058;28;20053;-72
2021/07/17 01:04:59;;;;;;;24.02;10.35;;;;;;;15.94;89.17;102838.81;5012613;28;20061;-72
2021/07/17 01:07:27;;;;;;;25.50;10.48;;;;;;;15.94;88.87;102844.22;5012922;28;20353;-73
2021/07/17 01:09:56;;;;;;;23.77;9.45;;;;;;;15.99;88.63;102844.13;5014696;28;20614;-72
2021/07/17 01:12:24;;;;;;;28.15;9.80;;;;;;;15.95;88.62;102845.97;5013289;28;20108;-72
2021/07/17 01:14:52;;;;;;;23.92;9.85;;;;;;;15.94;88.87;102841.53;5017296;28;20064;-72
2021/07/17 01:17:19;;;;;;;27.40;9.60;;;;;;;15.95;88.88;102842.41;5016051;28;20131;-72
2021/07/17 01:19:47;;;;;;;24.83;11.32;;;;;;;15.95;88.49;102847.78;5013937;28;20108;-78
2021/07/17 01:22:18;;;;;;;26.98;9.82;;;;;;;15.95;88.37;102845.09;5017974;28;20069;-78
2021/07/17 01:24:47;;;;;;;24.45;10.18;;;;;;;15.91;88.61;102840.72;5012849;28;20120;-77
2021/07/17 01:27:17;;;;;;;23.42;10.38;;;;;;;15.93;88.97;102847.81;5013302;28;20384;-78
2021/07/17 01:29:45;;;;;;;23.90;10.07;;;;;;;15.92;88.21;102835.28;5013512;28;20184;-78
2021/07/17 01:32:14;;;;;;;22.60;9.13;;;;;;;15.86;88.53;102830.03;5014231;28;20329;-78
2021/07/17 01:34:42;;;;;;;28.05;10.55;;;;;;;15.81;88.57;102832.81;5014428;28;20112;-78
2021/07/17 01:37:09;;;;;;;29.35;10.10;;;;;;;15.72;89.27;102830.31;5014601;28;20112;-77
2021/07/17 01:39:38;;;;;;;26.33;9.93;;;;;;;15.69;89.18;102833.06;5013693;28;20357;-77
2021/07/17 01:42:08;;;;;;;22.52;9.35;;;;;;;15.68;89.18;102829.50;5010943;28;20061;-77
2021/07/17 01:44:44;;;;;;;27.25;9.57;;;;;;;15.64;89.22;102832.28;5010501;28;20067;-72
2021/07/17 01:47:12;;;;;;;23.38;9.57;;;;;;;15.56;89.76;102827.09;5015213;28;20057;-72
2021/07/17 01:49:40;;;;;;;27.10;9.45;;;;;;;15.50;89.65;102829.88;5012613;28;20073;-72
2021/07/17 01:52:09;;;;;;;24.70;9.98;;;;;;;15.52;90.01;102829.88;5013474;28;20458;-72
2021/07/17 01:54:39;;;;;;;24.20;10.00;;;;;;;15.47;89.84;102835.34;5013298;28;20270;-72
2021/07/17 01:57:08;;;;;;;22.60;9.40;;;;;;;15.39;90.44;102824.75;5012359;28;20433;-72
2021/07/17 01:59:38;;;;;;;27.90;9.90;;;;;;;15.32;90.76;102829.38;5014148;28;20085;-72
2021/07/17 02:02:06;;;;;;;18.60;9.40;;;;;;;15.28;90.89;102833.00;5008571;28;20065;-73
2021/07/17 02:04:35;;;;;;;29.60;11.32;;;;;;;15.18;91.78;102825.19;5010685;28;20356;-77
2021/07/17 02:07:04;;;;;;;27.58;9.77;;;;;;;15.21;91.68;102830.50;5016565;28;20391;-77
2021/07/17 02:09:32;;;;;;;26.35;9.65;;;;;;;15.16;92.15;102827.03;5009985;28;20127;-77
2021/07/17 02:12:02;;;;;;;28.55;9.70;;;;;;;15.12;91.76;102826.19;5012940;28;20065;-77
2021/07/17 02:14:34;;;;;;;29.10;10.27;;;;;;;15.07;92.36;102822.72;5010468;28;20085;-77
2021/07/17 02:17:03;;;;;;;23.95;9.48;;;;;;;15.04;92.15;102820.06;5012169;28;20147;-72
2021/07/17 02:19:31;;;;;;;30.58;11.27;;;;;;;15.00;93.12;102826.41;5012635;28;20571;-72
2021/07/17 02:21:59;;;;;;;19.88;9.48;;;;;;;14.99;93.08;102830.03;5010290;28;20076;-72
2021/07/17 02:24:27;;;;;;;22.17;10.13;;;;;;;14.97;93.62;102821.13;5013635;28;20057;-72
2021/07/17 02:26:55;;;;;;;30.65;10.88;;;;;;;14.93;93.67;102825.63;5013915;28;20413;-72
2021/07/17 02:29:24;;;;;;;31.50;10.48;;;;;;;14.90;93.65;102833.78;5016537;28;20065;-75
2021/07/17 02:31:52;;;;;;;28.02;10.10;;;;;;;14.85;93.61;102827.59;5012164;28;20070;-78
2021/07/17 02:34:20;;;;;;;26.77;10.75;;;;;;;14.80;94.57;102826.81;5008842;28;20068;-78
2021/07/17 02:36:48;;;;;;;25.88;10.15;;;;;;;14.78;94.58;102823.22;5013916;28;20110;-75
2021/07/17 02:39:18;;;;;;;25.08;10.18;;;;;;;14.74;94.94;102826.00;5013773;28;20301;-76
2021/07/17 02:41:46;;;;;;;23.98;10.48;;;;;;;14.73;95.45;102826.03;5015082;28;20119;-77
2021/07/17 02:44:14;;;;;;;31.55;9.73;;;;;;;14.72;95.85;102833.19;5013124;28;20093;-77
2021/07/17 02:46:43;;;;;;;29.13;10.55;;;;;;;14.69;96.44;102822.50;5010560;28;20069;-77
2021/07/17 02:49:11;;;;;;;27.50;10.68;;;;;;;14.69;96.49;102826.97;5010861;28;20057;-76
2021/07/17 02:51:38;;;;;;;26.65;10.00;;;;;;;14.66;97.05;102827.03;5008902;28;20112;-72
2021/07/17 02:54:07;;;;;;;27.55;10.35;;;;;;;14.64;97.33;102823.47;5013478;28;20061;-72
2021/07/17 02:56:35;;;;;;;23.65;9.57;;;;;;;14.63;96.77;102829.78;5011836;28;20061;-72
2021/07/17 02:59:03;;;;;;;24.67;11.10;;;;;;;14.58;97.29;102827.16;5011103;28;20061;-72
2021/07/17 03:01:31;;;;;;;29.40;9.75;;;;;;;14.56;97.20;102837.03;5013985;28;20085;-72
2021/07/17 03:04:00;;;;;;;27.65;9.80;;;;;;;14.51;97.82;102831.72;5010706;28;20486;-72
2021/07/17 03:06:28;;;;;;;22.92;9.27;;;;;;;14.48;96.60;102826.41;5012935;28;20403;-72
2021/07/17 03:08:56;;;;;;;33.90;9.88;;;;;;;14.43;97.94;102833.66;5014571;28;20045;-74
2021/07/17 03:11:24;;;;;;;26.20;8.95;;;;;;;14.41;97.53;102834.59;5007784;28;20490;-71
2021/07/17 03:13:52;;;;;;;18.65;8.68;;;;;;;14.43;97.52;102839.03;5012469;28;20519;-72
2021/07/17 03:16:19;;;;;;;22.70;9.48;;;;;;;14.40;98.02;102841.75;5011786;28;20081;-76
2021/07/17 03:18:47;;;;;;;23.48;9.50;;;;;;;14.37;98.27;102834.66;5013451;28;20392;-76
2021/07/17 03:21:16;;;;;;;24.38;8.85;;;;;;;14.33;97.96;102834.72;5015689;28;20455;-76
2021/07/17 03:23:44;;;;;;;24.23;10.32;;;;;;;14.29;98.66;102830.31;5013576;28;20365;-76
2021/07/17 03:26:12;;;;;;;25.58;8.48;;;;;;;14.29;98.46;102835.69;5018440;28;20354;-76
2021/07/17 03:28:40;;;;;;;26.17;9.98;;;;;;;14.25;98.68;102832.19;5014956;28;20069;-76
2021/07/17 03:31:07;;;;;;;28.52;9.57;;;;;;;14.24;99.16;102826.81;5017413;28;20065;-76
2021/07/17 03:33:36;;;;;;;27.65;9.52;;;;;;;14.22;98.73;102831.31;5017493;28;20451;-76
2021/07/17 03:36:05;;;;;;;26.60;9.23;;;;;;;14.16;98.63;102822.44;5014805;28;20384;-76
2021/07/17 03:38:34;;;;;;;26.48;9.00;;;;;;;14.14;99.38;102826.94;5014486;28;20066;-77
2021/07/17 03:41:02;;;;;;;24.42;10.13;;;;;;;14.14;100.00;102829.63;5013556;28;20097;-77
2021/07/17 03:43:30;;;;;;;36.03;11.85;;;;;;;14.13;100.00;102835.94;5016865;28;20706;-77
2021/07/17 03:45:58;;;;;;;23.23;9.13;;;;;;;14.14;100.00;102840.38;5021607;28;20367;-77
2021/07/17 03:48:26;;;;;;;22.15;8.98;;;;;;;14.11;100.00;102844.91;5014945;28;20195;-77
2021/07/17 03:50:54;;;;;;;28.95;10.55;;;;;;;14.07;100.00;102846.75;5013799;28;20194;-77
2021/07/17 03:53:21;;;;;;;24.08;9.57;;;;;;;14.07;100.00;102841.38;5013153;28;20054;-77
2021/07/17 03:55:50;;;;;;;31.73;9.73;;;;;;;14.09;100.00;102830.63;5017762;28;20068;-77
2021/07/17 03:58:18;;;;;;;39.10;9.93;;;;;;;14.06;100.00;102838.72;5012158;28;20169;-77
2021/07/17 04:00:46;;;;;;;33.50;11.75;;;;;;;14.05;100.00;102842.34;5014535;28;20259;-77
2021/07/17 04:03:14;;;;;;;32.65;10.18;;;;;;;14.07;100.00;102837.81;5018244;28;20073;-77
2021/07/17 04:05:42;;;;;;;33.05;11.57;;;;;;;14.05;100.00;102834.28;5013571;28;20058;-77
2021/07/17 04:08:13;;;;;;;34.17;10.15;;;;;;;14.08;100.00;102836.88;5014659;28;20497;-78
2021/07/17 04:10:41;;;;;;;29.88;10.10;;;;;;;14.09;100.00;102841.38;5015610;28;20064;-77
2021/07/17 04:13:10;;;;;;;29.95;10.98;;;;;;;14.06;100.00;102842.28;5014195;28;20459;-77
2021/07/17 04:15:38;;;;;;;21.13;9.60;;;;;;;14.08;100.00;102844.94;5014617;28;20104;-77
2021/07/17 04:18:06;;;;;;;26.15;9.45;;;;;;;14.07;100.00;102846.75;5013137;28;20061;-77
2021/07/17 04:20:34;;;;;;;29.73;10.13;;;;;;;14.08;100.00;102851.22;5016944;28;20093;-77
2021/07/17 04:23:01;;;;;;;33.45;11.30;;;;;;;14.08;100.00;102851.22;5016796;28;20072;-78
2021/07/17 04:25:29;;;;;;;29.75;9.10;;;;;;;14.10;100.00;102849.41;5014758;28;20061;-78
2021/07/17 04:27:57;;;;;;;30.90;10.57;;;;;;;14.14;100.00;102850.22;5014039;28;21010;-77
2021/07/17 04:30:26;;;;;;;37.47;10.18;;;;;;;14.14;100.00;102851.09;5016425;28;20062;-78
2021/07/17 04:32:54;;;;;;;24.70;9.70;;;;;;;14.17;100.00;102853.75;5017023;28;20108;-77
2021/07/17 04:35:22;;;;;;;30.30;12.10;;;;;;;14.22;100.00;102850.09;5017299;28;20065;-78
2021/07/17 04:37:50;;;;;;;28.77;9.85;;;;;;;14.26;100.00;102855.41;5012355;28;20485;-78
2021/07/17 04:40:18;;;;;;;26.20;9.45;;;;;;;14.31;100.00;102858.03;5013013;28;20169;-78
2021/07/17 04:42:46;;;;;;;30.92;9.07;;;;;;;14.36;100.00;102862.41;5013536;28;20073;-77
2021/07/17 04:45:14;;;;;;;31.92;9.30;;;;;;;14.42;100.00;102864.13;5016231;28;20264;-78
2021/07/17 04:47:43;;;;;;;20.30;9.57;;;;;;;14.47;100.00;102861.34;5013308;28;20144;-78
2021/07/17 04:50:11;;;;;;;24.63;9.40;;;;;;;14.55;100.00;102867.47;5012693;28;20069;-78
2021/07/17 04:52:39;;;;;;;32.33;10.55;;;;;;;14.65;100.00;102866.44;5016800;28;20107;-76
2021/07/17 04:55:07;;;;;;;26.38;10.40;;;;;;;14.78;100.00;102861.75;5012973;28;20058;-76
2021/07/17 04:57:35;;;;;;;24.45;9.63;;;;;;;14.89;100.00;102865.13;5015720;28;20395;-79
2021/07/17 05:00:04;;;;;;;28.50;10.00;;;;;;;15.04;100.00;102868.47;5015683;28;20131;-77
2021/07/17 05:02:32;;;;;;;30.30;9.10;;;;;;;15.16;100.00;102862.84;5014377;28;20066;-77
2021/07/17 05:05:01;;;;;;;33.67;9.20;;;;;;;15.32;100.00;102867.03;5012036;28;20132;-76
2021/07/17 05:07:29;;;;;;;27.55;9.57;;;;;;;15.44;100.00;102864.97;5008089;28;20270;-77
2021/07/17 05:09:57;;;;;;;23.73;9.00;;;;;;;15.58;100.00;102857.53;5013958;28;20125;-77
2021/07/17 05:12:25;;;;;;;28.77;10.45;;;;;;;15.71;100.00;102859.94;5012340;28;20069;-77
2021/07/17 05:14:53;;;;;;;24.30;9.43;;;;;;;15.86;99.76;102870.41;5016064;28;20067;-77
2021/07/17 05:17:20;;;;;;;30.00;9.45;;;;;;;15.96;99.36;102866.59;5010507;28;20149;-77
2021/07/17 05:19:48;;;;;;;25.67;8.93;;;;;;;16.06;98.69;102862.78;5012483;28;20760;-77
2021/07/17 05:22:17;;;;;;;25.45;8.23;;;;;;;16.30;97.98;102863.13;5016952;28;20068;-77
2021/07/17 05:24:45;;;;;;;22.25;7.93;;;;;;;16.53;96.83;102865.25;5012563;28;20108;-77
2021/07/17 05:27:13;;;;;;;29.27;7.85;;;;;;;16.71;95.87;102861.19;5010568;28;20088;-77
2021/07/17 05:29:40;;;;;;;22.65;7.78;;;;;;;16.76;95.08;102856.56;5014184;28;20104;-77
2021/07/17 05:32:09;;;;;;;24.02;7.90;;;;;;;16.83;94.43;102867.19;5010341;28;20383;-77
2021/07/17 05:34:38;;;;;;;28.23;8.48;;;;;;;16.97;94.00;102863.25;5016406;28;20411;-77
2021/07/17 05:37:05;;;;;;;24.35;8.02;;;;;;;17.17;92.96;102878.88;5012863;28;20130;-77
2021/07/17 05:39:34;;;;;;;25.40;7.15;;;;;;;17.39;92.47;102870.19;5012628;28;20089;-76
2021/07/17 05:42:02;;;;;;;20.52;7.28;;;;;;;17.58;91.21;102872.34;5014856;28;20111;-76
2021/07/17 05:44:30;;;;;;;21.13;7.45;;;;;;;17.49;90.83;102868.97;5012468;28;20069;-77
2021/07/17 05:46:58;;;;;;;18.02;6.38;;;;;;;17.85;89.40;102868.81;5013830;28;20065;-78
2021/07/17 05:49:26;;;;;;;21.30;6.97;;;;;;;17.98;88.15;102858.56;5016770;28;20065;-77
2021/07/17 05:51:54;;;;;;;21.77;6.65;;;;;;;18.02;87.84;102865.63;5011258;28;20054;-77
2021/07/17 05:54:23;;;;;;;22.00;7.00;;;;;;;17.98;88.01;102861.25;5018253;28;20073;-77
2021/07/17 05:56:52;;;;;;;24.10;6.85;;;;;;;18.56;87.25;102863.88;5014608;28;20072;-77
2021/07/17 05:59:19;;;;;;;16.30;6.07;;;;;;;18.50;85.49;102861.38;5015379;28;20080;-77
2021/07/17 06:01:47;;;;;;;20.48;6.72;;;;;;;18.66;84.40;102870.75;5014265;28;20049;-78
2021/07/17 06:04:15;;;;;;;18.20;6.43;;;;;;;18.87;83.62;102865.56;5011705;28;20270;-78
2021/07/17 06:06:43;;;;;;;17.33;5.88;;;;;;;18.90;83.38;102864.56;5014289;28;20621;-72
2021/07/17 06:09:11;;;;;;;23.60;5.88;;;;;;;18.97;82.76;102874.25;5009728;28;20168;-71
2021/07/17 06:11:39;;;;;;;16.90;6.22;;;;;;;19.43;82.17;102872.56;5016384;28;20144;-72
2021/07/17 06:14:08;;;;;;;18.00;5.68;;;;;;;19.44;80.43;102876.16;5014482;28;20061;-72
2021/07/17 06:16:36;;;;;;;21.00;5.70;;;;;;;19.54;80.09;102880.28;5011748;28;20516;-72
2021/07/17 06:19:04;;;;;;;22.55;6.30;;;;;;;19.83;78.58;102878.31;5013175;28;20073;-72
2021/07/17 06:21:32;;;;;;;15.35;5.57;;;;;;;19.47;79.33;102885.03;5012461;28;20067;-71
2021/07/17 06:24:00;;;;;;;16.20;4.97;;;;;;;19.85;78.38;102879.13;5013391;28;20441;-72
2021/07/17 06:26:28;;;;;;;16.17;5.43;;;;;;;20.01;77.26;102877.59;5012508;28;20089;-72
2021/07/17 06:28:56;;;;;;;18.42;5.47;;;;;;;20.14;76.71;102883.38;5010177;28;20186;-72
2021/07/17 06:31:25;;;;;;;13.48;4.57;;;;;;;20.61;75.73;102887.81;5011458;28;20054;-72
2021/07/17 06:33:53;;;;;;;15.40;4.65;;;;;;;20.11;75.46;102879.00;5010879;28;20371;-73
2021/07/17 06:36:21;;;;;;;13.27;4.60;;;;;;;20.51;74.49;102880.03;5012739;28;20049;-72
2021/07/17 06:38:49;;;;;;;17.52;5.43;;;;;;;20.62;73.92;102884.13;5012008;28;20073;-72
2021/07/17 06:41:17;;;;;;;23.17;5.40;;;;;;;20.85;73.89;102889.50;5013421;28;20084;-72
2021/07/17 06:43:44;;;;;;;15.20;4.82;;;;;;;20.73;73.29;102890.03;5013497;28;20132;-72
2021/07/17 06:46:12;;;;;;;15.05;4.72;;;;;;;21.13;72.07;102891.03;5012330;28;20062;-72
2021/07/17 06:48:41;;;;;;;15.27;4.55;;;;;;;21.42;71.08;102889.69;5011808;28;20097;-72
2021/07/17 06:51:09;;;;;;;16.95;5.40;;;;;;;21.20;70.34;102903.38;5010128;28;20513;-72
2021/07/17 06:53:37;;;;;;;16.00;4.90;;;;;;;21.45;70.21;102911.28;5010756;28;20069;-72
2021/07/17 06:56:05;;;;;;;21.35;5.25;;;;;;;21.61;70.08;102905.19;5010833;28;20088;-72
2021/07/17 06:58:33;;;;;;;12.00;4.38;;;;;;;21.36;69.55;102895.41;5008269;28;20406;-72
2021/07/17 07:01:01;;;;;;;13.70;4.35;;;;;;;21.68;68.70;102906.66;5012783;28;20096;-72
2021/07/17 07:03:29;;;;;;;16.98;5.00;;;;;;;21.95;67.33;102900.88;5013577;28;20065;-72
2021/07/17 07:05:59;;;;;;;14.05;4.93;;;;;;;21.52;68.13;102909.22;5013897;28;20053;-72
2021/07/17 07:08:27;;;;;;;11.00;3.67;;;;;;;21.90;67.49;102901.09;5011809;28;20084;-72
2021/07/17 07:10:55;;;;;;;11.18;4.10;;;;;;;22.18;66.96;102899.75;5012255;28;20135;-72
2021/07/17 07:13:25;;;;;;;11.45;4.38;;;;;;;22.02;66.52;102908.66;5011420;28;20067;-73
2021/07/17 07:15:54;;;;;;;13.80;4.22;;;;;;;22.53;66.13;102894.44;5015170;28;20127;-72
2021/07/17 07:18:21;;;;;;;9.65;3.70;;;;;;;22.86;64.59;102908.16;5010683;28;20375;-77
2021/07/17 07:20:49;;;;;;;11.43;4.07;;;;;;;23.08;62.90;102905.22;5011731;28;21124;-77
2021/07/17 07:23:18;;;;;;;11.02;3.67;;;;;;;23.43;61.85;102909.78;5016146;28;20069;-78
2021/07/17 07:25:46;;;;;;;16.42;4.18;;;;;;;23.30;62.46;102909.53;5015542;28;20065;-77
2021/07/17 07:28:17;;;;;;;10.60;3.78;;;;;;;23.22;62.47;102918.09;5012291;28;20086;-77
2021/07/17 07:30:45;;;;;;;11.07;3.75;;;;;;;22.98;62.32;102914.81;5013362;28;20170;-77
2021/07/17 07:33:13;;;;;;;16.50;4.25;;;;;;;22.99;61.53;102918.44;5012848;28;20061;-72
2021/07/17 07:35:40;;;;;;;9.68;3.58;;;;;;;23.58;61.29;102927.09;5009820;28;20065;-72
2021/07/17 07:38:08;;;;;;;10.18;3.63;;;;;;;23.85;59.86;102920.19;5010976;28;20065;-72
2021/07/17 07:40:37;;;;;;;8.80;4.00;;;;;;;23.52;59.60;102924.75;5014982;28;20792;-77
2021/07/17 07:43:05;;;;;;;7.43;3.20;;;;;;;23.06;61.04;102926.22;5010448;28;20504;-77
2021/07/17 07:45:33;;;;;;;9.77;3.58;;;;;;;23.67;59.77;102924.78;5011150;28;20061;-78
2021/07/17 07:48:01;;;;;;;8.55;3.58;;;;;;;23.68;60.36;102925.66;5015798;28;20087;-77
2021/07/17 07:50:29;;;;;;;11.27;3.83;;;;;;;23.45;59.84;102925.06;5015215;28;20065;-77
2021/07/17 07:52:58;;;;;;;14.50;4.53;;;;;;;23.54;59.50;102926.41;5008359;28;20112;-77
2021/07/17 07:55:26;;;;;;;11.20;3.60;;;;;;;23.59;59.42;102916.13;5012799;28;20593;-78
2021/07/17 07:57:55;;;;;;;6.18;2.90;;;;;;;23.60;59.13;102912.47;5012050;28;20790;-77
2021/07/17 08:00:23;;;;;;;12.13;3.90;;;;;;;24.00;57.47;102912.09;5013033;28;20057;-77
2021/07/17 08:02:52;;;;;;;9.77;3.90;;;;;;;24.34;57.04;102913.78;5014380;28;20084;-77
2021/07/17 08:05:20;;;;;;;9.32;3.60;;;;;;;24.21;56.75;102901.81;5012226;28;20461;-78
2021/07/17 08:07:48;;;;;;;11.82;3.72;;;;;;;24.65;56.12;102908.41;5008055;28;20070;-78
2021/07/17 08:10:16;;;;;;;9.73;3.45;;;;;;;24.91;55.50;102907.72;5018007;28;20072;-77
2021/07/17 08:12:46;;;;;;;11.88;3.45;;;;;;;24.98;54.74;102909.09;5012045;28;20570;-78
2021/07/17 08:15:16;;;;;;;9.10;3.05;;;;;;;24.96;53.35;102899.22;5016140;28;20477;-78
2021/07/17 08:17:44;;;;;;;9.18;3.20;;;;;;;25.13;53.81;102904.56;5017499;28;20057;-78
2021/07/17 08:20:12;;;;;;;9.30;3.13;;;;;;;25.05;53.19;102908.75;5017665;28;20100;-78
2021/07/17 08:22:42;;;;;;;8.15;2.85;;;;;;;25.27;53.85;102909.19;5015250;28;20123;-77
2021/07/17 08:25:11;;;;;;;8.98;3.60;;;;;;;25.84;52.61;102913.78;5013452;28;20112;-78
2021/07/17 08:27:39;;;;;;;9.40;3.35;;;;;;;24.90;53.11;102914.16;5015637;28;20101;-78
2021/07/17 08:30:09;;;;;;;6.55;3.22;;;;;;;25.24;51.79;102919.41;5016672;28;20441;-77
2021/07/17 08:32:54;;;;;;;7.05;3.00;;;;;;;25.54;51.55;102919.38;5015768;28;20639;-77
2021/07/17 08:35:22;;;;;;;8.10;2.92;;;;;;;25.72;51.06;102914.59;5016467;28;20107;-76
2021/07/17 08:37:51;;;;;;;7.55;3.00;;;;;;;26.14;50.13;102922.88;5014948;28;20124;-76
2021/07/17 08:40:21;;;;;;;9.77;3.38;;;;;;;25.77;49.88;102920.63;5016306;28;20065;-77
2021/07/17 08:42:51;;;;;;;8.88;4.18;;;;;;;25.59;50.31;102919.06;5015049;28;20527;-77
2021/07/17 08:45:20;;;;;;;7.00;3.08;;;;;;;26.22;50.08;102915.03;5014888;28;20054;-77
2021/07/17 08:47:48;;;;;;;6.75;2.80;;;;;;;25.86;49.61;102916.41;5014374;28;20061;-78
2021/07/17 08:50:22;;;;;;;8.63;2.90;;;;;;;25.75;50.05;102916.25;5016708;28;20119;-77
2021/07/17 08:52:51;;;;;;;8.10;3.40;;;;;;;26.23;48.90;102906.72;5015913;28;20068;-78
2021/07/17 08:55:18;;;;;;;8.00;3.17;;;;;;;26.45;47.55;102908.03;5013790;28;20250;-78
2021/07/17 08:57:46;;;;;;;11.07;3.10;;;;;;;26.73;46.84;102904.34;5017615;28;20120;-78
2021/07/17 09:00:17;;;;;;;8.25;2.58;;;;;;;26.74;45.26;102897.84;5015283;28;20514;-77
2021/07/17 09:02:52;;;;;;;7.60;2.53;;;;;;;26.24;45.67;102915.81;5010875;28;20054;-77
2021/07/17 09:05:23;;;;;;;5.32;2.30;;;;;;;26.59;45.25;102901.63;5013681;28;20500;-77
2021/07/17 09:07:51;;;;;;;5.78;2.67;;;;;;;26.15;45.73;102902.75;5012478;28;20057;-77
2021/07/17 09:10:30;;;;;;;7.32;2.47;;;;;;;26.08;45.73;102897.69;5014586;28;20076;-76
2021/07/17 09:13:14;;;;;;;7.40;3.00;;;;;;;26.33;45.48;102912.47;5016087;28;20068;-77
2021/07/17 09:15:53;;;;;;;6.50;2.90;;;;;;;26.82;44.87;102905.56;5015092;28;20050;-77
2021/07/17 09:18:29;;;;;;;6.70;2.85;;;;;;;26.23;45.55;102909.44;5012452;28;20076;-76
2021/07/17 09:21:02;;;;;;;9.60;3.20;;;;;;;26.56;45.70;102897.25;5016220;28;20062;-77
2021/07/17 09:23:32;;;;;;;7.65;2.72;;;;;;;26.11;46.49;102907.53;5019591;28;20069;-78
2021/07/17 09:26:01;;;;;;;6.93;2.92;;;;;;;26.98;45.26;102897.16;5015139;28;20065;-77
2021/07/17 09:28:32;;;;;;;7.72;2.90;;;;;;;26.84;44.14;102896.25;5020385;28;20187;-79
2021/07/17 09:31:02;;;;;;;7.88;3.13;;;;;;;27.10;44.54;102896.28;5015753;28;20045;-72
2021/07/17 09:33:30;;;;;;;9.32;2.92;;;;;;;27.06;44.32;102893.88;5012459;28;20104;-73
2021/07/17 09:35:59;;;;;;;6.40;2.67;;;;;;;27.37;42.84;102903.56;5017673;28;20061;-73
2021/07/17 09:38:32;;;;;;;8.45;2.67;;;;;;;26.70;44.24;102896.31;5015648;28;20061;-72
2021/07/17 09:41:02;;;;;;;;;;;;;;;26.73;44.62;102890.66;5013672;28;20071;-72
2021/07/17 09:43:41;;;;;;;7.85;3.05;;;;;;;27.26;44.26;102892.44;5013496;28;20350;-73
2021/07/17 09:46:20;;;;;;;8.23;2.90;;;;;;;27.11;44.66;102899.91;5014566;28;20160;-77
2021/07/17 09:48:52;;;;;;;6.43;2.90;;;;;;;26.72;44.04;102888.88;5013618;28;20382;-77
2021/07/17 09:51:25;;;;;;;7.10;3.05;;;;;;;26.24;44.49;102896.66;5013212;28;20069;-78
2021/07/17 09:53:54;;;;;;;5.70;2.50;;;;;;;27.23;42.95;102889.94;5013201;28;20071;-77
2021/07/17 09:56:24;;;;;;;5.18;2.65;;;;;;;26.83;42.60;102893.59;5015523;28;20461;-77
2021/07/17 09:58:53;;;;;;;7.68;2.78;;;;;;;26.01;44.92;102895.44;5016074;28;20068;-77
2021/07/17 10:01:24;;;;;;;9.75;3.17;;;;;;;26.21;45.10;102895.00;5016240;28;20380;-77
2021/07/17 10:03:57;;;;;;;7.97;2.95;;;;;;;26.13;44.56;102889.16;5010976;28;20692;-77
2021/07/17 10:06:36;;;;;;;6.38;2.80;;;;;;;26.05;43.99;102892.41;5010756;28;20160;-77
2021/07/17 10:09:07;;;;;;;8.02;3.17;;;;;;;26.52;44.91;102883.88;5013979;28;20069;-77
2021/07/17 10:11:35;;;;;;;11.82;3.33;;;;;;;26.96;44.29;102888.16;5014292;28;20161;-71
2021/07/17 10:14:17;;;;;;;8.70;3.30;;;;;;;27.54;43.35;102895.00;5013050;28;20322;-72
2021/07/17 10:16:47;;;;;;;10.02;3.40;;;;;;;27.43;43.30;102889.44;5012357;28;20357;-72
2021/07/17 10:19:16;;;;;;;5.82;2.80;;;;;;;27.74;42.43;102892.69;5014349;28;20065;-72
2021/07/17 10:21:46;;;;;;;10.55;3.17;;;;;;;27.32;43.02;102903.03;5014296;28;20069;-72
2021/07/17 10:24:15;;;;;;;5.43;2.60;;;;;;;27.03;42.93;102894.97;5014271;28;20511;-71
2021/07/17 10:26:44;;;;;;;8.75;3.00;;;;;;;26.99;42.53;102885.22;5012151;28;20068;-72
2021/07/17 10:29:14;;;;;;;4.93;2.83;;;;;;;27.22;41.74;102894.53;5013076;28;20061;-73
2021/07/17 10:31:42;;;;;;;8.18;2.60;;;;;;;27.39;40.62;102898.84;5013295;28;20066;-72
2021/07/17 10:34:10;;;;;;;6.53;2.72;;;;;;;27.58;41.31;102895.66;5008968;28;20156;-72
2021/07/17 10:36:43;;;;;;;7.32;2.70;;;;;;;27.36;41.46;102893.56;5015580;28;20595;-72
2021/07/17 10:39:13;;;;;;;7.73;2.93;;;;;;;27.68;41.50;102890.38;5012059;28;20061;-72
2021/07/17 10:41:44;;;;;;;9.32;2.80;;;;;;;27.60;40.30;102887.31;5014658;28;20057;-72
2021/07/17 10:44:12;;;;;;;8.30;2.80;;;;;;;27.51;41.04;102889.72;5012071;28;20091;-73
2021/07/17 10:46:41;;;;;;;10.85;2.70;;;;;;;28.01;40.03;102884.31;5013265;28;20073;-73
2021/07/17 10:49:13;;;;;;;7.97;2.90;;;;;;;28.23;39.97;102891.81;5014319;28;20127;-72
2021/07/17 10:51:42;;;;;;;6.45;2.80;;;;;;;27.86;39.67;102890.91;5015277;28;20065;-73
2021/07/17 10:54:13;;;;;;;6.88;2.65;;;;;;;28.11;39.53;102884.47;5012673;28;20480;-72
2021/07/17 10:56:46;;;;;;;6.85;2.53;;;;;;;27.77;39.21;102878.75;5012998;28;20061;-73
2021/07/17 10:59:47;;;;;;;6.13;2.40;;;;;;;28.15;39.16;102893.38;5011432;28;20124;-72
2021/07/17 11:02:22;;;;;;;7.65;2.50;;;;;;;28.17;39.07;102885.91;4972074;28;20066;-72
2021/07/17 11:05:01;;;;;;;6.20;2.55;;;;;;;27.44;39.08;102884.81;5004911;28;20068;-72
2021/07/17 11:07:37;;;;;;;6.95;2.30;;;;;;;28.30;39.35;102879.38;5015511;28;20443;-72
2021/07/17 11:10:40;;;;;;;6.03;2.45;;;;;;;28.54;38.94;102877.59;5009418;28;20104;-72
2021/07/17 11:13:08;;;;;;;6.77;2.47;;;;;;;28.17;39.52;102891.41;5013713;28;20373;-72
2021/07/17 11:15:39;;;;;;;4.95;2.28;;;;;;;28.26;38.32;102874.22;5010463;28;20314;-74
2021/07/17 11:18:40;;;;;;;3.35;1.70;;;;;;;27.97;38.17;102876.41;5014779;28;20067;-72
2021/07/17 11:21:11;;;;;;;5.65;2.05;;;;;;;28.32;37.71;102879.25;5011889;28;21804;-73
2021/07/17 11:23:44;;;;;;;4.68;2.28;;;;;;;27.90;38.39;102876.84;5009174;28;20111;-73
2021/07/17 11:26:23;;;;;;;5.80;2.00;;;;;;;28.44;37.29;102878.31;5013553;28;20053;-73